Filer City, Michigan
Current Conditions -  °F | °C
As of 12:15 AM on Sunday 26 Oct 2014 (Local Time) from KMBL Reporting Station
Clear Clear  
Wind Chill: 52°   Ceiling: Unl
Heat Index: 52°   Visibility: 10mi
Dew Point: 36°   Wind: 12mph
Humidity: 54%   Direction: 310°NW
Pressure: 29.87"   Gusts: 17mph
Location:  44.22°N, 86.29°W
Report Text: KMBL 260415Z AUTO 31010G15KT 10SM CLR 11/02 A2987 RMK AO1
Loading
Personal Weather Stations






























Interactive Weather Map
Tropical Storm Tracking
New forecast layout! Learn more

10-Day Weather Forecast

Advertisements
Track Severe Weather on mobile